CheckWX is a tool to help pilots better visualize weather data.  It is not intended as a substitute for an official pre-flight weather briefing.

14:44:30 UTC

KPOE METAR
Polk AAF Airport
Fort Polk, Louisiana, USA
Current

17 mins ago

KPOE 201428Z AUTO 14009KT 10SM BKN005 OVC011 24/24 A2997 RMK AO2 BKN V OVC SLP148
Observed
May-20 @ 14:28 UTC
Wind
  • 140° at 9 KTS
Visibility
10 SM
Flight Rules
IFR
Cloud Levels
  • Broken at 500' AGL
  • Overcast at 1,100' AGL
Temperature
24°C / 75°F
Dewpoint
24°C / 75°F
Humidity
100%
Altimeter
29.97" Hg
Pressure
1014.92 hPa
Previous

32 mins ago

KPOE 201413Z AUTO 14009KT 10SM OVC004 24/23 A2997 RMK AO2 SLP148
Observed
May-20 @ 14:13 UTC
Wind
  • 140° at 9 KTS
Visibility
10 SM
Flight Rules
LIFR
Cloud Levels
  • Overcast at 400' AGL
Temperature
24°C / 75°F
Dewpoint
23°C / 73°F
Humidity
94%
Altimeter
29.97" Hg
Pressure
1014.92 hPa
Previous

47 mins ago

KPOE 201358Z AUTO 13007KT 9SM OVC003 23/23 A2997 RMK AO2 SLP148 T02320227
Observed
May-20 @ 13:58 UTC
Wind
  • 130° at 7 KTS
Visibility
9 SM
Flight Rules
LIFR
Cloud Levels
  • Overcast at 300' AGL
Temperature
23°C / 73°F
Dewpoint
23°C / 73°F
Humidity
100%
Altimeter
29.97" Hg
Pressure
1014.92 hPa